sensor_id;sensor_type;location;lat;lon;timestamp;P1;durP1;ratioP1;P2;durP2;ratioP2
47239;SDS011;32978;53.586;10.052;2024-03-23T00:57:05;26.38;;;5.90;;
47239;SDS011;32978;53.586;10.052;2024-03-23T01:02:01;30.35;;;6.65;;
47239;SDS011;32978;53.586;10.052;2024-03-23T01:06:56;29.13;;;5.32;;
47239;SDS011;32978;53.586;10.052;2024-03-23T01:11:52;23.52;;;5.45;;
47239;SDS011;32978;53.586;10.052;2024-03-23T01:16:47;29.70;;;5.93;;
47239;SDS011;32978;53.586;10.052;2024-03-23T01:21:43;29.90;;;7.07;;
47239;SDS011;32978;53.586;10.052;2024-03-23T01:26:38;25.75;;;5.82;;
47239;SDS011;32978;53.586;10.052;2024-03-23T01:31:34;21.15;;;5.68;;
47239;SDS011;32978;53.586;10.052;2024-03-23T01:36:30;25.10;;;5.53;;
47239;SDS011;32978;53.586;10.052;2024-03-23T01:41:26;30.02;;;5.72;;
47239;SDS011;32978;53.586;10.052;2024-03-23T01:46:21;29.92;;;6.63;;
47239;SDS011;32978;53.586;10.052;2024-03-23T01:51:17;24.70;;;5.75;;
47239;SDS011;32978;53.586;10.052;2024-03-23T01:56:13;19.05;;;5.30;;
47239;SDS011;32978;53.586;10.052;2024-03-23T02:01:09;24.23;;;6.07;;
47239;SDS011;32978;53.586;10.052;2024-03-23T02:06:04;20.35;;;5.90;;
47239;SDS011;32978;53.586;10.052;2024-03-23T02:11:02;27.23;;;5.55;;
47239;SDS011;32978;53.586;10.052;2024-03-23T02:15:58;26.08;;;6.63;;
47239;SDS011;32978;53.586;10.052;2024-03-23T02:20:53;17.90;;;5.82;;
47239;SDS011;32978;53.586;10.052;2024-03-23T02:25:49;17.67;;;4.93;;
47239;SDS011;32978;53.586;10.052;2024-03-23T02:30:45;25.27;;;5.68;;
47239;SDS011;32978;53.586;10.052;2024-03-23T02:35:41;29.52;;;6.15;;
47239;SDS011;32978;53.586;10.052;2024-03-23T02:40:36;26.98;;;5.55;;
47239;SDS011;32978;53.586;10.052;2024-03-23T02:45:34;25.85;;;5.63;;
47239;SDS011;32978;53.586;10.052;2024-03-23T02:50:30;24.63;;;6.70;;
47239;SDS011;32978;53.586;10.052;2024-03-23T02:55:25;18.15;;;4.97;;
47239;SDS011;32978;53.586;10.052;2024-03-23T03:00:21;31.52;;;6.47;;
47239;SDS011;32978;53.586;10.052;2024-03-23T03:05:16;28.80;;;6.07;;
47239;SDS011;32978;53.586;10.052;2024-03-23T03:10:12;28.67;;;7.32;;
47239;SDS011;32978;53.586;10.052;2024-03-23T03:15:08;22.48;;;5.68;;
47239;SDS011;32978;53.586;10.052;2024-03-23T03:20:04;24.70;;;5.53;;
47239;SDS011;32978;53.586;10.052;2024-03-23T03:25:01;24.15;;;5.70;;
47239;SDS011;32978;53.586;10.052;2024-03-23T03:29:57;28.02;;;5.18;;
47239;SDS011;32978;53.586;10.052;2024-03-23T03:34:53;15.75;;;4.90;;
47239;SDS011;32978;53.586;10.052;2024-03-23T03:39:48;25.08;;;5.25;;
47239;SDS011;32978;53.586;10.052;2024-03-23T03:44:44;17.38;;;4.93;;
47239;SDS011;32978;53.586;10.052;2024-03-23T03:49:39;12.32;;;4.38;;
47239;SDS011;32978;53.586;10.052;2024-03-23T03:54:35;25.55;;;5.95;;
47239;SDS011;32978;53.586;10.052;2024-03-23T03:59:31;21.55;;;5.40;;
47239;SDS011;32978;53.586;10.052;2024-03-23T04:04:26;32.15;;;6.18;;
47239;SDS011;32978;53.586;10.052;2024-03-23T04:09:22;22.98;;;5.40;;
47239;SDS011;32978;53.586;10.052;2024-03-23T04:14:17;21.15;;;5.57;;
47239;SDS011;32978;53.586;10.052;2024-03-23T04:19:13;24.95;;;5.72;;
47239;SDS011;32978;53.586;10.052;2024-03-23T04:24:09;29.90;;;5.55;;
47239;SDS011;32978;53.586;10.052;2024-03-23T04:29:04;22.35;;;5.95;;
47239;SDS011;32978;53.586;10.052;2024-03-23T04:34:00;20.90;;;5.57;;
47239;SDS011;32978;53.586;10.052;2024-03-23T04:38:57;18.42;;;5.13;;
47239;SDS011;32978;53.586;10.052;2024-03-23T04:43:54;21.38;;;5.55;;
47239;SDS011;32978;53.586;10.052;2024-03-23T04:48:50;22.45;;;5.10;;
47239;SDS011;32978;53.586;10.052;2024-03-23T04:53:45;22.35;;;6.32;;
47239;SDS011;32978;53.586;10.052;2024-03-23T04:58:41;19.83;;;5.22;;
47239;SDS011;32978;53.586;10.052;2024-03-23T05:03:37;15.57;;;4.95;;
47239;SDS011;32978;53.586;10.052;2024-03-23T05:08:32;21.50;;;5.00;;
47239;SDS011;32978;53.586;10.052;2024-03-23T05:13:28;19.58;;;5.18;;
47239;SDS011;32978;53.586;10.052;2024-03-23T05:18:23;29.42;;;6.40;;
47239;SDS011;32978;53.586;10.052;2024-03-23T05:23:21;14.43;;;4.97;;
47239;SDS011;32978;53.586;10.052;2024-03-23T05:28:17;24.77;;;5.13;;
47239;SDS011;32978;53.586;10.052;2024-03-23T05:33:13;21.77;;;6.03;;
47239;SDS011;32978;53.586;10.052;2024-03-23T05:38:09;22.45;;;5.50;;
47239;SDS011;32978;53.586;10.052;2024-03-23T05:43:04;19.60;;;5.35;;
47239;SDS011;32978;53.586;10.052;2024-03-23T05:48:00;26.20;;;5.60;;
47239;SDS011;32978;53.586;10.052;2024-03-23T05:52:57;28.30;;;6.78;;
47239;SDS011;32978;53.586;10.052;2024-03-23T05:57:52;30.20;;;6.03;;
47239;SDS011;32978;53.586;10.052;2024-03-23T06:02:48;21.90;;;5.20;;
47239;SDS011;32978;53.586;10.052;2024-03-23T06:07:44;23.55;;;5.63;;
47239;SDS011;32978;53.586;10.052;2024-03-23T06:12:39;18.98;;;5.75;;
47239;SDS011;32978;53.586;10.052;2024-03-23T06:17:35;27.45;;;7.75;;
47239;SDS011;32978;53.586;10.052;2024-03-23T06:22:30;19.55;;;5.28;;
47239;SDS011;32978;53.586;10.052;2024-03-23T06:27:26;18.23;;;5.95;;
47239;SDS011;32978;53.586;10.052;2024-03-23T06:32:22;25.08;;;5.63;;
47239;SDS011;32978;53.586;10.052;2024-03-23T06:37:17;20.58;;;5.82;;
47239;SDS011;32978;53.586;10.052;2024-03-23T06:42:13;21.48;;;5.93;;
47239;SDS011;32978;53.586;10.052;2024-03-23T06:47:08;21.20;;;5.75;;
47239;SDS011;32978;53.586;10.052;2024-03-23T06:52:04;24.17;;;6.03;;
47239;SDS011;32978;53.586;10.052;2024-03-23T06:56:59;23.73;;;5.38;;
47239;SDS011;32978;53.586;10.052;2024-03-23T07:01:55;19.08;;;6.10;;
47239;SDS011;32978;53.586;10.052;2024-03-23T07:06:51;21.52;;;6.43;;
47239;SDS011;32978;53.586;10.052;2024-03-23T07:11:47;30.48;;;6.55;;
47239;SDS011;32978;53.586;10.052;2024-03-23T07:16:42;20.90;;;5.97;;
47239;SDS011;32978;53.586;10.052;2024-03-23T07:21:38;19.88;;;5.72;;
47239;SDS011;32978;53.586;10.052;2024-03-23T07:26:33;13.30;;;5.75;;
47239;SDS011;32978;53.586;10.052;2024-03-23T07:31:29;23.10;;;5.97;;
47239;SDS011;32978;53.586;10.052;2024-03-23T07:36:25;18.05;;;5.97;;
47239;SDS011;32978;53.586;10.052;2024-03-23T07:41:21;15.30;;;5.30;;
47239;SDS011;32978;53.586;10.052;2024-03-23T07:46:16;14.30;;;5.30;;
47239;SDS011;32978;53.586;10.052;2024-03-23T07:51:21;21.20;;;5.20;;
47239;SDS011;32978;53.586;10.052;2024-03-23T07:56:18;29.63;;;6.80;;
47239;SDS011;32978;53.586;10.052;2024-03-23T08:01:18;21.40;;;6.45;;
47239;SDS011;32978;53.586;10.052;2024-03-23T08:06:14;17.08;;;6.07;;
47239;SDS011;32978;53.586;10.052;2024-03-23T08:11:11;14.35;;;5.53;;
47239;SDS011;32978;53.586;10.052;2024-03-23T08:16:06;25.80;;;6.50;;
47239;SDS011;32978;53.586;10.052;2024-03-23T08:21:04;17.48;;;6.60;;
47239;SDS011;32978;53.586;10.052;2024-03-23T08:26:01;25.33;;;6.97;;
47239;SDS011;32978;53.586;10.052;2024-03-23T08:31:01;17.33;;;6.07;;
47239;SDS011;32978;53.586;10.052;2024-03-23T08:35:59;15.90;;;5.60;;
47239;SDS011;32978;53.586;10.052;2024-03-23T08:41:03;22.63;;;7.65;;
47239;SDS011;32978;53.586;10.052;2024-03-23T08:46:06;24.98;;;6.82;;
47239;SDS011;32978;53.586;10.052;2024-03-23T08:51:11;19.67;;;7.32;;
47239;SDS011;32978;53.586;10.052;2024-03-23T08:56:08;16.17;;;7.40;;
47239;SDS011;32978;53.586;10.052;2024-03-23T09:01:06;22.20;;;7.65;;
47239;SDS011;32978;53.586;10.052;2024-03-23T09:06:06;20.13;;;8.32;;
47239;SDS011;32978;53.586;10.052;2024-03-23T09:11:04;17.48;;;7.25;;
47239;SDS011;32978;53.586;10.052;2024-03-23T09:16:04;15.60;;;6.60;;
47239;SDS011;32978;53.586;10.052;2024-03-23T09:21:00;15.00;;;7.03;;
47239;SDS011;32978;53.586;10.052;2024-03-23T09:25:56;15.77;;;7.38;;
47239;SDS011;32978;53.586;10.052;2024-03-23T09:30:51;11.63;;;7.50;;
47239;SDS011;32978;53.586;10.052;2024-03-23T09:35:47;16.58;;;8.13;;
47239;SDS011;32978;53.586;10.052;2024-03-23T09:40:43;17.13;;;7.55;;
47239;SDS011;32978;53.586;10.052;2024-03-23T09:45:39;14.32;;;8.30;;
47239;SDS011;32978;53.586;10.052;2024-03-23T09:50:39;14.82;;;7.68;;
47239;SDS011;32978;53.586;10.052;2024-03-23T09:55:35;14.55;;;7.43;;
47239;SDS011;32978;53.586;10.052;2024-03-23T10:00:31;14.68;;;7.35;;
47239;SDS011;32978;53.586;10.052;2024-03-23T10:05:28;14.85;;;7.85;;
47239;SDS011;32978;53.586;10.052;2024-03-23T10:10:25;15.85;;;7.43;;
47239;SDS011;32978;53.586;10.052;2024-03-23T10:15:22;10.38;;;7.03;;
47239;SDS011;32978;53.586;10.052;2024-03-23T10:20:19;11.90;;;7.05;;
47239;SDS011;32978;53.586;10.052;2024-03-23T10:25:18;15.45;;;6.85;;
47239;SDS011;32978;53.586;10.052;2024-03-23T10:30:18;11.20;;;7.32;;
47239;SDS011;32978;53.586;10.052;2024-03-23T10:40:11;12.32;;;8.45;;
47239;SDS011;32978;53.586;10.052;2024-03-23T10:45:07;15.80;;;7.25;;
47239;SDS011;32978;53.586;10.052;2024-03-23T10:50:04;10.80;;;7.03;;
47239;SDS011;32978;53.586;10.052;2024-03-23T10:55:04;13.38;;;6.93;;
47239;SDS011;32978;53.586;10.052;2024-03-23T11:00:02;16.80;;;8.10;;
47239;SDS011;32978;53.586;10.052;2024-03-23T11:04:59;14.15;;;7.00;;
47239;SDS011;32978;53.586;10.052;2024-03-23T11:09:55;13.90;;;6.80;;
47239;SDS011;32978;53.586;10.052;2024-03-23T11:15:02;12.98;;;8.02;;
47239;SDS011;32978;53.586;10.052;2024-03-23T11:20:06;8.40;;;6.47;;
47239;SDS011;32978;53.586;10.052;2024-03-23T11:25:17;14.23;;;6.43;;
47239;SDS011;32978;53.586;10.052;2024-03-23T11:30:20;11.77;;;6.13;;
47239;SDS011;32978;53.586;10.052;2024-03-23T11:35:29;8.80;;;6.53;;
47239;SDS011;32978;53.586;10.052;2024-03-23T11:40:28;10.10;;;5.78;;
47239;SDS011;32978;53.586;10.052;2024-03-23T11:45:24;11.30;;;5.55;;
47239;SDS011;32978;53.586;10.052;2024-03-23T11:50:20;9.52;;;6.07;;
47239;SDS011;32978;53.586;10.052;2024-03-23T11:55:16;7.45;;;5.32;;
47239;SDS011;32978;53.586;10.052;2024-03-23T12:00:21;8.75;;;5.88;;
47239;SDS011;32978;53.586;10.052;2024-03-23T12:05:17;9.18;;;6.35;;
47239;SDS011;32978;53.586;10.052;2024-03-23T12:10:12;7.05;;;4.93;;
47239;SDS011;32978;53.586;10.052;2024-03-23T12:15:09;5.50;;;4.35;;
47239;SDS011;32978;53.586;10.052;2024-03-23T12:20:07;5.13;;;4.20;;
47239;SDS011;32978;53.586;10.052;2024-03-23T12:25:03;4.63;;;4.18;;
47239;SDS011;32978;53.586;10.052;2024-03-23T12:29:59;7.88;;;5.07;;
47239;SDS011;32978;53.586;10.052;2024-03-23T12:34:55;6.75;;;4.57;;
47239;SDS011;32978;53.586;10.052;2024-03-23T12:39:51;8.60;;;4.63;;
47239;SDS011;32978;53.586;10.052;2024-03-23T12:44:46;7.10;;;4.82;;
47239;SDS011;32978;53.586;10.052;2024-03-23T12:49:42;5.20;;;4.50;;
47239;SDS011;32978;53.586;10.052;2024-03-23T12:54:38;3.83;;;3.47;;
47239;SDS011;32978;53.586;10.052;2024-03-23T12:59:33;3.22;;;2.60;;
47239;SDS011;32978;53.586;10.052;2024-03-23T13:04:30;4.47;;;2.90;;
47239;SDS011;32978;53.586;10.052;2024-03-23T13:09:26;5.82;;;3.55;;
47239;SDS011;32978;53.586;10.052;2024-03-23T13:14:22;3.50;;;2.90;;
47239;SDS011;32978;53.586;10.052;2024-03-23T13:19:18;4.53;;;3.17;;
47239;SDS011;32978;53.586;10.052;2024-03-23T13:24:15;4.35;;;3.50;;
47239;SDS011;32978;53.586;10.052;2024-03-23T13:29:10;5.00;;;3.85;;
47239;SDS011;32978;53.586;10.052;2024-03-23T13:34:06;5.60;;;4.32;;
47239;SDS011;32978;53.586;10.052;2024-03-23T13:39:04;6.65;;;3.67;;
47239;SDS011;32978;53.586;10.052;2024-03-23T13:44:06;5.00;;;3.45;;
47239;SDS011;32978;53.586;10.052;2024-03-23T13:49:02;7.93;;;3.72;;
47239;SDS011;32978;53.586;10.052;2024-03-23T13:53:58;6.72;;;4.72;;
47239;SDS011;32978;53.586;10.052;2024-03-23T13:58:57;6.72;;;4.45;;
47239;SDS011;32978;53.586;10.052;2024-03-23T14:03:53;5.50;;;4.35;;
47239;SDS011;32978;53.586;10.052;2024-03-23T14:08:50;7.30;;;4.45;;
47239;SDS011;32978;53.586;10.052;2024-03-23T14:13:46;4.85;;;4.20;;
47239;SDS011;32978;53.586;10.052;2024-03-23T14:18:41;5.50;;;4.25;;
47239;SDS011;32978;53.586;10.052;2024-03-23T14:23:37;4.70;;;3.83;;
47239;SDS011;32978;53.586;10.052;2024-03-23T14:28:32;6.07;;;4.63;;
47239;SDS011;32978;53.586;10.052;2024-03-23T14:33:29;5.13;;;4.00;;
47239;SDS011;32978;53.586;10.052;2024-03-23T14:38:25;5.47;;;4.00;;
47239;SDS011;32978;53.586;10.052;2024-03-23T14:43:20;4.60;;;3.80;;
47239;SDS011;32978;53.586;10.052;2024-03-23T14:48:16;7.88;;;4.28;;
47239;SDS011;32978;53.586;10.052;2024-03-23T14:53:11;5.32;;;4.03;;
47239;SDS011;32978;53.586;10.052;2024-03-23T14:58:09;8.15;;;4.38;;
47239;SDS011;32978;53.586;10.052;2024-03-23T15:03:05;9.88;;;5.70;;
47239;SDS011;32978;53.586;10.052;2024-03-23T15:08:01;6.65;;;4.80;;
47239;SDS011;32978;53.586;10.052;2024-03-23T15:12:57;5.15;;;4.32;;
47239;SDS011;32978;53.586;10.052;2024-03-23T15:17:53;7.38;;;4.38;;
47239;SDS011;32978;53.586;10.052;2024-03-23T15:22:49;6.20;;;4.40;;
47239;SDS011;32978;53.586;10.052;2024-03-23T15:27:44;5.15;;;3.95;;
47239;SDS011;32978;53.586;10.052;2024-03-23T15:32:40;4.30;;;3.60;;
47239;SDS011;32978;53.586;10.052;2024-03-23T15:37:35;5.53;;;3.80;;
47239;SDS011;32978;53.586;10.052;2024-03-23T15:42:31;4.22;;;3.83;;
47239;SDS011;32978;53.586;10.052;2024-03-23T15:47:26;5.88;;;4.18;;
47239;SDS011;32978;53.586;10.052;2024-03-23T15:52:22;5.50;;;4.88;;
47239;SDS011;32978;53.586;10.052;2024-03-23T15:57:18;4.30;;;3.90;;
47239;SDS011;32978;53.586;10.052;2024-03-23T16:02:13;4.43;;;3.70;;
47239;SDS011;32978;53.586;10.052;2024-03-23T16:07:10;9.80;;;4.50;;
47239;SDS011;32978;53.586;10.052;2024-03-23T16:12:05;8.40;;;4.35;;
47239;SDS011;32978;53.586;10.052;2024-03-23T16:17:01;6.63;;;4.63;;
47239;SDS011;32978;53.586;10.052;2024-03-23T16:21:56;7.60;;;4.70;;
47239;SDS011;32978;53.586;10.052;2024-03-23T16:26:52;5.35;;;4.30;;
47239;SDS011;32978;53.586;10.052;2024-03-23T16:31:47;7.07;;;4.53;;
47239;SDS011;32978;53.586;10.052;2024-03-23T16:36:43;8.80;;;4.50;;
47239;SDS011;32978;53.586;10.052;2024-03-23T16:41:39;5.90;;;4.25;;
47239;SDS011;32978;53.586;10.052;2024-03-23T16:46:34;6.70;;;3.78;;
47239;SDS011;32978;53.586;10.052;2024-03-23T16:51:30;5.30;;;4.10;;
47239;SDS011;32978;53.586;10.052;2024-03-23T16:56:26;5.45;;;4.05;;
47239;SDS011;32978;53.586;10.052;2024-03-23T17:01:21;6.22;;;4.38;;
47239;SDS011;32978;53.586;10.052;2024-03-23T17:06:19;6.45;;;4.80;;
47239;SDS011;32978;53.586;10.052;2024-03-23T17:11:15;7.00;;;4.10;;
47239;SDS011;32978;53.586;10.052;2024-03-23T17:16:13;7.30;;;4.68;;
47239;SDS011;32978;53.586;10.052;2024-03-23T17:21:10;8.63;;;4.50;;
47239;SDS011;32978;53.586;10.052;2024-03-23T17:26:06;6.40;;;5.10;;
47239;SDS011;32978;53.586;10.052;2024-03-23T17:31:01;7.82;;;4.60;;
47239;SDS011;32978;53.586;10.052;2024-03-23T17:35:57;6.38;;;4.28;;
47239;SDS011;32978;53.586;10.052;2024-03-23T17:40:56;7.95;;;4.65;;
47239;SDS011;32978;53.586;10.052;2024-03-23T17:45:51;8.05;;;4.85;;
47239;SDS011;32978;53.586;10.052;2024-03-23T17:50:47;7.50;;;4.15;;
47239;SDS011;32978;53.586;10.052;2024-03-23T17:55:42;6.38;;;4.40;;
47239;SDS011;32978;53.586;10.052;2024-03-23T18:00:38;7.07;;;4.93;;
47239;SDS011;32978;53.586;10.052;2024-03-23T18:05:34;6.55;;;4.82;;
47239;SDS011;32978;53.586;10.052;2024-03-23T18:10:30;9.13;;;5.22;;
47239;SDS011;32978;53.586;10.052;2024-03-23T18:15:25;7.05;;;4.50;;
47239;SDS011;32978;53.586;10.052;2024-03-23T18:20:21;9.98;;;4.95;;
47239;SDS011;32978;53.586;10.052;2024-03-23T18:25:16;9.10;;;5.15;;
47239;SDS011;32978;53.586;10.052;2024-03-23T18:30:12;10.75;;;4.88;;
47239;SDS011;32978;53.586;10.052;2024-03-23T18:35:07;11.32;;;4.50;;
47239;SDS011;32978;53.586;10.052;2024-03-23T18:40:03;6.25;;;4.38;;
47239;SDS011;32978;53.586;10.052;2024-03-23T18:44:59;8.30;;;4.20;;
47239;SDS011;32978;53.586;10.052;2024-03-23T18:49:55;6.13;;;4.95;;
47239;SDS011;32978;53.586;10.052;2024-03-23T18:54:50;7.95;;;5.05;;
47239;SDS011;32978;53.586;10.052;2024-03-23T18:59:46;7.50;;;4.82;;
47239;SDS011;32978;53.586;10.052;2024-03-23T19:04:41;7.25;;;6.10;;
47239;SDS011;32978;53.586;10.052;2024-03-23T19:09:37;8.77;;;4.75;;
47239;SDS011;32978;53.586;10.052;2024-03-23T19:14:33;12.02;;;5.35;;
47239;SDS011;32978;53.586;10.052;2024-03-23T19:19:28;8.00;;;4.28;;
47239;SDS011;32978;53.586;10.052;2024-03-23T19:24:24;11.13;;;4.45;;
47239;SDS011;32978;53.586;10.052;2024-03-23T19:29:19;7.38;;;4.10;;
47239;SDS011;32978;53.586;10.052;2024-03-23T19:34:15;6.35;;;4.28;;
47239;SDS011;32978;53.586;10.052;2024-03-23T19:39:11;11.05;;;4.25;;
47239;SDS011;32978;53.586;10.052;2024-03-23T19:44:08;8.07;;;4.15;;
47239;SDS011;32978;53.586;10.052;2024-03-23T19:49:03;7.72;;;4.10;;
47239;SDS011;32978;53.586;10.052;2024-03-23T19:53:59;6.90;;;4.05;;
47239;SDS011;32978;53.586;10.052;2024-03-23T19:58:54;7.47;;;3.92;;
47239;SDS011;32978;53.586;10.052;2024-03-23T20:03:50;6.75;;;3.95;;
47239;SDS011;32978;53.586;10.052;2024-03-23T20:08:46;6.28;;;3.25;;
47239;SDS011;32978;53.586;10.052;2024-03-23T20:13:42;10.52;;;5.22;;
47239;SDS011;32978;53.586;10.052;2024-03-23T20:18:38;10.93;;;4.07;;
47239;SDS011;32978;53.586;10.052;2024-03-23T20:23:33;8.82;;;4.10;;
47239;SDS011;32978;53.586;10.052;2024-03-23T20:28:29;9.25;;;4.40;;
47239;SDS011;32978;53.586;10.052;2024-03-23T20:33:25;7.20;;;4.57;;
47239;SDS011;32978;53.586;10.052;2024-03-23T20:38:20;8.48;;;4.65;;
47239;SDS011;32978;53.586;10.052;2024-03-23T20:43:17;10.25;;;4.63;;
47239;SDS011;32978;53.586;10.052;2024-03-23T20:48:12;9.95;;;4.65;;
47239;SDS011;32978;53.586;10.052;2024-03-23T20:53:08;8.05;;;4.93;;
47239;SDS011;32978;53.586;10.052;2024-03-23T20:58:03;11.43;;;4.68;;
47239;SDS011;32978;53.586;10.052;2024-03-23T21:02:59;10.50;;;4.47;;
47239;SDS011;32978;53.586;10.052;2024-03-23T21:07:55;7.72;;;4.70;;
47239;SDS011;32978;53.586;10.052;2024-03-23T21:12:50;13.05;;;5.00;;
47239;SDS011;32978;53.586;10.052;2024-03-23T21:17:46;8.00;;;4.20;;
47239;SDS011;32978;53.586;10.052;2024-03-23T21:22:41;12.43;;;5.05;;
47239;SDS011;32978;53.586;10.052;2024-03-23T21:27:37;9.55;;;4.07;;
47239;SDS011;32978;53.586;10.052;2024-03-23T21:32:33;9.68;;;4.15;;
47239;SDS011;32978;53.586;10.052;2024-03-23T21:37:29;9.63;;;3.97;;
47239;SDS011;32978;53.586;10.052;2024-03-23T21:42:25;6.97;;;3.88;;
47239;SDS011;32978;53.586;10.052;2024-03-23T21:47:20;5.22;;;3.40;;
47239;SDS011;32978;53.586;10.052;2024-03-23T21:52:16;10.35;;;4.10;;
47239;SDS011;32978;53.586;10.052;2024-03-23T21:57:11;7.28;;;4.85;;
47239;SDS011;32978;53.586;10.052;2024-03-23T22:02:07;10.43;;;3.97;;
47239;SDS011;32978;53.586;10.052;2024-03-23T22:07:03;8.77;;;4.50;;
47239;SDS011;32978;53.586;10.052;2024-03-23T22:11:59;4.85;;;3.42;;
47239;SDS011;32978;53.586;10.052;2024-03-23T22:16:55;10.50;;;4.45;;
47239;SDS011;32978;53.586;10.052;2024-03-23T22:21:50;11.73;;;3.95;;
47239;SDS011;32978;53.586;10.052;2024-03-23T22:26:46;7.55;;;3.88;;
47239;SDS011;32978;53.586;10.052;2024-03-23T22:31:42;5.78;;;3.95;;
47239;SDS011;32978;53.586;10.052;2024-03-23T22:36:37;11.50;;;3.90;;
47239;SDS011;32978;53.586;10.052;2024-03-23T22:41:33;8.57;;;4.22;;
47239;SDS011;32978;53.586;10.052;2024-03-23T22:46:29;12.05;;;3.70;;
47239;SDS011;32978;53.586;10.052;2024-03-23T22:51:24;9.43;;;4.45;;
47239;SDS011;32978;53.586;10.052;2024-03-23T22:56:20;7.53;;;4.10;;
47239;SDS011;32978;53.586;10.052;2024-03-23T23:01:15;9.43;;;4.22;;
47239;SDS011;32978;53.586;10.052;2024-03-23T23:06:11;9.68;;;4.05;;
47239;SDS011;32978;53.586;10.052;2024-03-23T23:11:06;6.22;;;4.05;;
47239;SDS011;32978;53.586;10.052;2024-03-23T23:16:03;9.35;;;4.53;;
47239;SDS011;32978;53.586;10.052;2024-03-23T23:20:59;7.70;;;4.07;;
47239;SDS011;32978;53.586;10.052;2024-03-23T23:25:54;9.82;;;3.92;;
47239;SDS011;32978;53.586;10.052;2024-03-23T23:30:58;11.10;;;4.10;;
47239;SDS011;32978;53.586;10.052;2024-03-23T23:35:57;7.60;;;3.63;;
47239;SDS011;32978;53.586;10.052;2024-03-23T23:40:53;13.38;;;4.07;;
47239;SDS011;32978;53.586;10.052;2024-03-23T23:45:49;8.32;;;4.63;;
47239;SDS011;32978;53.586;10.052;2024-03-23T23:50:45;5.43;;;3.80;;
47239;SDS011;32978;53.586;10.052;2024-03-23T23:55:41;9.38;;;4.10;;
